createdAt,value
2022-08-08T00:00:53.091Z,27.58
2022-08-08T00:07:23.297Z,27.14
2022-08-08T00:14:57.220Z,27.43
2022-08-08T00:21:43.939Z,27.05
2022-08-08T00:28:37.896Z,27.32
2022-08-08T00:35:38.110Z,27.29
2022-08-08T00:43:05.988Z,27.25
2022-08-08T00:51:07.052Z,27.19
2022-08-08T00:58:43.742Z,26.76
2022-08-08T01:06:30.361Z,26.94
2022-08-08T01:13:52.832Z,26.88
2022-08-08T01:21:07.707Z,26.64
2022-08-08T01:28:36.879Z,26.94
2022-08-08T01:36:27.022Z,26.88
2022-08-08T01:43:38.504Z,26.83
2022-08-08T01:50:43.788Z,26.78
2022-08-08T01:58:11.101Z,26.76
2022-08-08T02:05:07.988Z,26.67
2022-08-08T02:11:59.735Z,26.59
2022-08-08T02:19:10.069Z,26.07
2022-08-08T02:26:15.906Z,26.54
2022-08-08T02:33:21.759Z,26.41
2022-08-08T02:40:21.300Z,26.32
2022-08-08T03:01:47.256Z,26.05
2022-08-08T03:09:49.152Z,25.65
2022-08-08T03:16:50.988Z,25.88
2022-08-08T03:23:57.442Z,25.80
2022-08-08T03:30:48.944Z,25.73
2022-08-08T03:38:55.055Z,25.84
2022-08-08T03:46:03.351Z,25.58
2022-08-08T03:52:13.235Z,25.52
2022-08-08T03:59:01.746Z,25.47
2022-08-08T04:05:50.473Z,24.86
2022-08-08T04:12:41.433Z,25.37
2022-08-08T04:19:26.993Z,25.33
2022-08-08T04:26:20.072Z,25.28
2022-08-08T04:33:12.464Z,25.21
2022-08-08T04:40:08.196Z,25.14
2022-08-08T04:47:11.912Z,24.96
2022-08-08T04:54:40.269Z,24.79
2022-08-08T05:01:11.272Z,24.66
2022-08-08T05:08:05.749Z,24.60
2022-08-08T05:14:52.340Z,24.52
2022-08-08T05:21:43.712Z,24.75
2022-08-08T05:28:55.963Z,24.89
2022-08-08T05:35:45.922Z,25.00
2022-08-08T05:42:44.650Z,25.13
2022-08-08T05:49:33.966Z,25.33
2022-08-08T05:56:26.178Z,25.57
2022-08-08T06:03:24.789Z,25.73
2022-08-08T06:10:24.629Z,25.90
2022-08-08T06:17:19.576Z,26.04
2022-08-08T06:24:13.709Z,26.08
2022-08-08T06:31:15.927Z,26.44
2022-08-08T06:38:09.276Z,26.55
2022-08-08T06:45:00.440Z,26.60
2022-08-08T06:51:57.744Z,26.29
2022-08-08T06:58:45.005Z,26.82
2022-08-08T07:05:40.065Z,26.83
2022-08-08T07:12:49.510Z,26.86
2022-08-08T07:19:47.393Z,26.60
2022-08-08T07:26:37.912Z,27.09
2022-08-08T07:33:37.947Z,27.16
2022-08-08T07:40:35.872Z,27.31
2022-08-08T07:47:38.466Z,27.46
2022-08-08T07:54:35.745Z,27.52
2022-08-08T08:02:35.445Z,27.74
2022-08-08T08:08:52.169Z,27.96
2022-08-08T08:15:43.657Z,28.22
2022-08-08T08:22:34.032Z,28.32
2022-08-08T08:29:22.823Z,28.33
2022-08-08T08:36:20.375Z,28.81
2022-08-08T08:43:16.966Z,28.37
2022-08-08T08:50:04.571Z,29.19
2022-08-08T08:56:53.568Z,29.26
2022-08-08T09:03:47.297Z,29.74
2022-08-08T09:10:42.602Z,29.90
2022-08-08T09:17:41.877Z,29.57
2022-08-08T09:24:43.101Z,30.36
2022-08-08T09:31:56.419Z,30.64
2022-08-08T09:38:58.032Z,30.89
2022-08-08T09:45:54.543Z,31.15
2022-08-08T09:52:58.459Z,31.36
2022-08-08T10:00:28.870Z,31.64
2022-08-08T10:07:07.197Z,31.94
2022-08-08T10:13:59.620Z,32.01
2022-08-08T10:21:00.570Z,32.21
2022-08-08T10:27:57.642Z,32.49
2022-08-08T10:35:00.353Z,32.26
2022-08-08T10:42:14.913Z,32.74
2022-08-08T10:49:03.239Z,33.05
2022-08-08T10:55:48.963Z,33.29
2022-08-08T11:02:38.665Z,33.44
2022-08-08T11:09:27.657Z,33.62
2022-08-08T11:16:33.081Z,33.64
2022-08-08T11:23:25.361Z,33.18
2022-08-08T11:30:24.436Z,33.94
2022-08-08T11:37:15.160Z,34.07
2022-08-08T11:44:05.484Z,34.24
2022-08-08T11:50:53.555Z,34.30
2022-08-08T11:57:40.905Z,34.30
2022-08-08T12:04:29.351Z,34.46
2022-08-08T12:11:27.159Z,34.56
2022-08-08T12:18:24.502Z,34.34
2022-08-08T12:25:29.622Z,34.63
2022-08-08T12:32:31.302Z,34.85
2022-08-08T12:39:17.310Z,34.87
2022-08-08T12:46:19.266Z,35.02
2022-08-08T12:53:29.996Z,35.09
2022-08-08T13:00:20.344Z,35.21
2022-08-08T13:07:16.992Z,35.32
2022-08-08T13:14:11.346Z,35.39
2022-08-08T13:20:58.320Z,35.44
2022-08-08T13:27:48.719Z,35.41
2022-08-08T13:34:43.201Z,35.53
2022-08-08T13:41:39.554Z,35.54
2022-08-08T13:49:12.283Z,35.37
2022-08-08T13:56:02.700Z,35.40
2022-08-08T14:02:48.580Z,35.22
2022-08-08T14:10:04.603Z,35.46
2022-08-08T14:16:52.929Z,34.98
2022-08-08T14:24:06.573Z,35.60
2022-08-08T14:30:56.008Z,35.63
2022-08-08T14:37:59.845Z,35.63
2022-08-08T14:45:00.340Z,35.57
2022-08-08T14:51:53.432Z,35.70
2022-08-08T14:58:39.509Z,35.67
2022-08-08T15:05:34.020Z,35.42
2022-08-08T15:12:32.550Z,35.72
2022-08-08T15:19:18.061Z,35.74
2022-08-08T15:26:06.761Z,35.74
2022-08-08T15:32:58.033Z,35.73
2022-08-08T15:39:43.813Z,35.82
2022-08-08T15:46:34.789Z,35.74
2022-08-08T15:53:23.853Z,35.30
2022-08-08T16:00:26.654Z,35.66
2022-08-08T16:07:13.877Z,35.80
2022-08-08T16:14:02.237Z,35.74
2022-08-08T16:20:51.029Z,35.69
2022-08-08T16:27:38.962Z,35.71
2022-08-08T16:34:28.643Z,35.71
2022-08-08T16:41:20.067Z,35.68
2022-08-08T16:48:06.604Z,35.58
2022-08-08T16:55:06.024Z,35.02
2022-08-08T17:02:00.853Z,35.51
2022-08-08T17:08:47.872Z,35.47
2022-08-08T17:15:52.678Z,35.46
2022-08-08T17:22:39.054Z,35.61
2022-08-08T17:29:28.074Z,35.43
2022-08-08T17:36:28.695Z,35.35
2022-08-08T17:43:15.473Z,35.27
2022-08-08T17:50:02.918Z,35.08
2022-08-08T17:56:52.593Z,35.06
2022-08-08T18:03:38.539Z,34.96
2022-08-08T18:10:31.367Z,34.48
2022-08-08T18:18:04.804Z,34.87
2022-08-08T18:24:30.234Z,34.92
2022-08-08T18:31:16.031Z,34.03
2022-08-08T18:38:17.347Z,34.77
2022-08-08T18:45:09.102Z,34.73
2022-08-08T18:52:18.153Z,34.59
2022-08-08T18:59:07.457Z,34.52
2022-08-08T19:05:53.051Z,34.40
2022-08-08T19:12:39.544Z,34.22
2022-08-08T19:19:33.155Z,34.02
2022-08-08T19:26:29.156Z,33.39
2022-08-08T19:33:17.204Z,33.73
2022-08-08T19:40:16.604Z,33.62
2022-08-08T19:47:04.279Z,33.58
2022-08-08T19:53:54.379Z,33.49
2022-08-08T20:00:43.571Z,33.29
2022-08-08T20:08:37.399Z,33.18
2022-08-08T20:14:41.902Z,32.78
2022-08-08T20:21:31.954Z,33.05
2022-08-08T20:28:25.339Z,33.10
2022-08-08T20:35:17.968Z,33.01
2022-08-08T20:42:11.228Z,32.88
2022-08-08T20:49:00.013Z,32.82
2022-08-08T20:55:51.165Z,32.75
2022-08-08T21:02:39.603Z,32.70
2022-08-08T21:09:31.800Z,32.64
2022-08-08T21:16:35.111Z,32.56
2022-08-08T21:24:02.384Z,32.49
2022-08-08T21:30:30.267Z,32.34
2022-08-08T21:37:18.998Z,32.14
2022-08-08T21:44:07.871Z,31.96
2022-08-08T21:50:53.509Z,31.85
2022-08-08T21:57:42.842Z,31.73
2022-08-08T22:04:31.412Z,31.63
2022-08-08T22:11:51.257Z,31.46
2022-08-08T22:18:22.769Z,31.42
2022-08-08T22:25:24.712Z,31.18
2022-08-08T22:32:11.341Z,30.86
2022-08-08T22:38:56.908Z,30.54
2022-08-08T22:45:46.642Z,29.97
2022-08-08T22:52:38.803Z,30.01
2022-08-08T22:59:58.890Z,29.90
2022-08-08T23:06:47.967Z,29.82
2022-08-08T23:13:53.857Z,29.80
2022-08-08T23:20:54.451Z,29.85
2022-08-08T23:27:46.335Z,29.79
2022-08-08T23:34:32.436Z,29.38
2022-08-08T23:41:24.716Z,29.61
2022-08-08T23:49:02.528Z,29.14
2022-08-08T23:55:22.405Z,29.38
